Time;durP1;ratioP1;P1;durP2;ratioP2;P2;SDS_P1;SDS_P2;PMS_P1;PMS_P2;Temp;Humidity;BMP_temperature;BMP_pressure;BME280_temperature;BME280_humidity;BME280_pressure;Samples;Min_cycle;Max_cycle;Signal;HPM_P1;HPM_P2
2023/09/03 00:01:55;;;;;;;28.95;10.13;;;;;;;13.11;100.00;102082.19;5043397;28;20082;-93
2023/09/03 00:04:21;;;;;;;24.45;9.27;;;;;;;13.14;100.00;102081.88;5057720;28;20029;-92
2023/09/03 00:06:47;;;;;;;21.20;8.27;;;;;;;13.23;100.00;102094.41;5090517;28;20032;-91
2023/09/03 00:09:12;;;;;;;22.95;8.52;;;;;;;13.32;100.00;102090.78;5075574;28;20072;-95
2023/09/03 00:11:38;;;;;;;19.88;8.25;;;;;;;13.38;100.00;102094.69;5073541;28;20013;-91
2023/09/03 00:14:08;;;;;;;26.30;9.15;;;;;;;13.36;100.00;102086.75;5069512;28;20036;-95
2023/09/03 00:16:37;;;;;;;31.40;9.73;;;;;;;13.30;100.00;102083.84;5056869;28;20466;-93
2023/09/03 00:19:06;;;;;;;24.00;8.77;;;;;;;13.23;100.00;102080.91;5056760;28;20036;-95
2023/09/03 00:21:32;;;;;;;24.27;8.95;;;;;;;13.23;100.00;102085.44;5057155;28;20112;-92
2023/09/03 00:23:58;;;;;;;20.48;8.57;;;;;;;13.22;100.00;102083.75;5056980;28;20123;-92
2023/09/03 00:26:26;;;;;;;22.83;8.20;;;;;;;13.26;100.00;102071.63;5058628;28;20033;-94
2023/09/03 00:28:52;;;;;;;22.40;8.35;;;;;;;13.32;100.00;102066.47;5023073;28;20082;-93
2023/09/03 00:31:18;;;;;;;25.55;9.77;;;;;;;13.28;100.00;102062.38;5056305;28;20036;-94
2023/09/03 00:33:44;;;;;;;27.92;10.18;;;;;;;13.30;100.00;102070.34;5055192;28;20395;-93
2023/09/03 00:36:10;;;;;;;22.20;8.75;;;;;;;13.28;100.00;102059.66;5054727;28;20108;-96
2023/09/03 00:38:38;;;;;;;22.42;9.40;;;;;;;13.26;100.00;102066.22;5054018;28;20029;-95
2023/09/03 00:41:04;;;;;;;22.13;9.73;;;;;;;13.24;100.00;102068.25;5021587;28;20506;-96
2023/09/03 00:43:34;;;;;;;27.48;9.98;;;;;;;13.26;100.00;102058.09;5055615;28;20468;-92
2023/09/03 00:46:04;;;;;;;23.77;9.40;;;;;;;13.31;100.00;102064.78;5090156;28;20542;-95
2023/09/03 00:48:30;;;;;;;25.05;9.57;;;;;;;13.37;100.00;102064.13;5060499;28;20021;-94
2023/09/03 00:50:59;;;;;;;29.63;10.18;;;;;;;13.45;100.00;102059.78;5046896;28;20044;-96
2023/09/03 00:53:26;;;;;;;19.60;9.45;;;;;;;13.48;100.00;102054.88;5045332;28;20043;-95
2023/09/03 00:55:52;;;;;;;28.10;9.75;;;;;;;13.48;100.00;102057.56;5044767;28;20029;-92
2023/09/03 00:58:18;;;;;;;25.13;9.32;;;;;;;13.51;100.00;102059.09;5061168;28;20128;-94
2023/09/03 01:00:44;;;;;;;28.33;9.77;;;;;;;13.56;100.00;102057.59;5060382;28;20028;-95
2023/09/03 01:03:10;;;;;;;27.58;9.77;;;;;;;13.56;100.00;102052.19;5058057;28;20037;-93
2023/09/03 01:05:35;;;;;;;28.92;10.00;;;;;;;13.51;100.00;102051.84;5057734;28;20391;-91
2023/09/03 01:08:02;;;;;;;30.65;9.80;;;;;;;13.41;100.00;102041.16;5042455;28;20033;-94
2023/09/03 01:11:09;;;;;;;26.90;10.23;;;;;;;13.40;100.00;102044.03;5041255;28;20029;-94
2023/09/03 01:13:38;;;;;;;26.85;10.48;;;;;;;13.42;100.00;102042.03;5070822;28;20041;-95
2023/09/03 01:16:16;;;;;;;32.38;10.95;;;;;;;13.37;100.00;102044.38;5041233;28;20044;-93
2023/09/03 01:18:42;;;;;;;33.80;10.57;;;;;;;13.39;100.00;102042.34;5058103;28;20048;-93
2023/09/03 01:21:40;;;;;;;35.10;11.20;;;;;;;13.41;100.00;102049.25;5058555;28;20037;-92
2023/09/03 01:24:20;;;;;;;36.90;11.50;;;;;;;13.39;100.00;102053.16;5073667;28;20514;-92
2023/09/03 01:27:23;;;;;;;40.08;10.68;;;;;;;13.33;100.00;102053.78;5040309;28;20067;-93
2023/09/03 01:29:51;;;;;;;38.60;11.45;;;;;;;13.19;100.00;102053.38;5060942;28;20033;-92
2023/09/03 01:32:17;;;;;;;40.47;11.57;;;;;;;13.10;100.00;102064.31;5066346;28;20033;-93
2023/09/03 01:34:44;;;;;;;47.42;11.50;;;;;;;12.99;100.00;102057.28;5061726;28;20041;-92
2023/09/03 01:37:11;;;;;;;48.47;12.00;;;;;;;12.95;100.00;102061.34;5057548;28;20045;-92
2023/09/03 01:39:37;;;;;;;45.53;12.32;;;;;;;12.87;100.00;102061.28;5041485;28;20041;-93
2023/09/03 01:42:06;;;;;;;92.53;13.00;;;;;;;12.73;100.00;102057.31;5057692;28;20072;-93
2023/09/03 01:44:32;;;;;;;40.42;11.48;;;;;;;12.62;100.00;102066.53;5073886;28;20047;-93
2023/09/03 01:47:11;;;;;;;112.60;13.65;;;;;;;12.48;100.00;102062.53;5040364;28;20041;-92
2023/09/03 01:49:42;;;;;;;56.38;12.00;;;;;;;12.46;100.00;102063.69;5024577;28;20040;-93
2023/09/03 01:52:28;;;;;;;64.90;13.02;;;;;;;12.44;100.00;102066.56;5057992;28;20041;-93
2023/09/03 01:54:56;;;;;;;56.95;13.13;;;;;;;12.49;100.00;102068.75;5057696;28;20035;-93
2023/09/03 01:57:27;;;;;;;72.78;13.40;;;;;;;12.62;100.00;102074.63;5056615;28;20483;-92
2023/09/03 01:59:54;;;;;;;42.40;11.23;;;;;;;12.74;100.00;102072.50;5057309;28;20033;-93
2023/09/03 02:02:27;;;;;;;74.28;12.75;;;;;;;12.85;100.00;102060.59;5041620;28;20025;-93
2023/09/03 02:04:59;;;;;;;45.78;12.25;;;;;;;12.90;100.00;102069.91;5040083;28;20029;-92
2023/09/03 02:07:24;;;;;;;63.08;13.32;;;;;;;12.91;100.00;102065.34;5040520;28;20106;-93
2023/09/03 02:09:50;;;;;;;44.00;11.23;;;;;;;12.97;100.00;102076.38;5056548;28;20033;-93
2023/09/03 02:12:16;;;;;;;50.03;12.98;;;;;;;13.04;100.00;102073.88;5056960;28;20040;-93
2023/09/03 02:14:42;;;;;;;41.47;11.55;;;;;;;13.11;100.00;102066.81;5057755;28;20037;-92
2023/09/03 02:17:14;;;;;;;36.85;11.80;;;;;;;13.10;100.00;102054.34;5057655;28;20430;-93
2023/09/03 02:19:40;;;;;;;31.55;11.32;;;;;;;13.02;100.00;102048.91;5059258;28;20040;-93
2023/09/03 02:22:08;;;;;;;38.83;11.65;;;;;;;12.98;100.00;102039.41;5057831;28;20082;-94
2023/09/03 02:24:36;;;;;;;42.55;11.27;;;;;;;12.87;100.00;102039.69;5040352;28;20025;-93
2023/09/03 02:27:01;;;;;;;51.78;11.80;;;;;;;12.79;100.00;102042.34;5057836;28;20104;-93
2023/09/03 02:29:27;;;;;;;75.20;12.15;;;;;;;12.63;100.00;102038.53;5057103;28;20041;-93
2023/09/03 02:31:53;;;;;;;40.85;10.73;;;;;;;12.41;100.00;102042.59;5056479;28;20427;-93
2023/09/03 02:34:18;;;;;;;140.60;14.05;;;;;;;12.19;100.00;102040.38;5055466;28;20037;-94
2023/09/03 02:36:44;;;;;;;102.93;13.23;;;;;;;12.06;100.00;102048.84;5040095;28;20434;-93
2023/09/03 02:39:13;;;;;;;101.72;12.95;;;;;;;11.94;100.00;102050.09;5056785;28;20025;-93
2023/09/03 02:41:38;;;;;;;38.78;9.88;;;;;;;11.84;100.00;102045.56;5039411;28;20024;-93
2023/09/03 02:44:06;;;;;;;45.38;10.80;;;;;;;11.80;100.00;102048.72;5056876;28;20032;-96
2023/09/03 02:46:32;;;;;;;97.53;12.63;;;;;;;11.72;100.00;102052.16;5058183;28;20451;-93
2023/09/03 02:49:02;;;;;;;147.70;13.68;;;;;;;11.64;100.00;102055.63;5056635;28;20117;-93
2023/09/03 02:51:28;;;;;;;38.58;9.25;;;;;;;11.57;100.00;102049.16;5058231;28;20501;-93
2023/09/03 02:53:56;;;;;;;39.30;8.77;;;;;;;11.54;100.00;102044.06;5041186;28;20041;-94
2023/09/03 02:56:25;;;;;;;52.88;10.45;;;;;;;11.47;100.00;102037.56;5057168;28;20033;-93
2023/09/03 02:59:08;;;;;;;39.33;9.13;;;;;;;11.41;100.00;102032.81;5043440;28;20041;-93
2023/09/03 03:01:36;;;;;;;68.60;11.73;;;;;;;11.34;100.00;102026.31;5058102;28;20093;-93
2023/09/03 03:04:01;;;;;;;64.72;11.40;;;;;;;11.24;100.00;102012.88;5058126;28;20062;-93
2023/09/03 03:06:27;;;;;;;46.90;10.10;;;;;;;11.36;100.00;102027.84;5039400;28;20092;-93
2023/09/03 03:08:53;;;;;;;138.82;14.52;;;;;;;11.31;100.00;102022.06;5038493;28;20115;-94
2023/09/03 03:11:19;;;;;;;55.15;10.85;;;;;;;11.26;100.00;102018.13;5021941;28;20171;-93
2023/09/03 03:13:50;;;;;;;101.85;12.80;;;;;;;11.24;100.00;102004.81;5073891;28;20372;-93
2023/09/03 03:16:15;;;;;;;81.10;11.52;;;;;;;11.31;100.00;102021.22;5028843;28;20041;-93
2023/09/03 03:18:45;;;;;;;56.75;10.50;;;;;;;11.32;100.00;102017.53;5089523;28;20143;-93
2023/09/03 03:21:18;;;;;;;51.63;9.75;;;;;;;11.39;100.00;102013.25;5071086;28;20033;-91
2023/09/03 03:23:46;;;;;;;;;;;;;;;11.44;100.00;102005.56;5040574;28;20041;-90
2023/09/03 03:26:11;;;;;;;72.97;11.57;;;;;;;11.43;100.00;101999.34;5078241;28;19916;-93
2023/09/03 03:28:37;;;;;;;81.70;11.50;;;;;;;11.42;100.00;102002.16;5056398;28;20017;-93
2023/09/03 03:31:15;;;;;;;96.88;12.05;;;;;;;11.35;100.00;101990.28;5039129;28;20036;-92
2023/09/03 03:33:44;;;;;;;74.05;11.23;;;;;;;11.29;100.00;101990.91;5040214;28;20082;-93
2023/09/03 03:36:20;;;;;;;69.07;10.60;;;;;;;11.23;100.00;101986.97;5056769;28;20482;-93
2023/09/03 03:38:46;;;;;;;67.25;10.52;;;;;;;11.22;100.00;101983.44;5057354;28;20044;-93
2023/09/03 03:41:17;;;;;;;65.00;10.60;;;;;;;11.16;100.00;101980.47;5055362;28;20041;-93
2023/09/03 03:43:47;;;;;;;57.13;10.18;;;;;;;11.09;100.00;101988.31;5040204;28;20044;-92
2023/09/03 03:46:20;;;;;;;53.33;9.27;;;;;;;11.09;100.00;101990.19;5055211;28;20395;-92
2023/09/03 03:48:49;;;;;;;44.78;8.25;;;;;;;11.12;100.00;101990.72;5045887;28;20025;-92
2023/09/03 03:51:15;;;;;;;52.65;10.25;;;;;;;11.20;100.00;101990.81;5046621;28;20029;-93
2023/09/03 03:53:41;;;;;;;58.00;10.18;;;;;;;11.31;100.00;101989.75;5056224;28;20438;-92
2023/09/03 03:56:09;;;;;;;61.05;10.35;;;;;;;11.30;100.00;101982.69;5057597;28;20037;-92
2023/09/03 03:58:37;;;;;;;59.58;9.95;;;;;;;11.26;100.00;101975.91;5005691;28;20032;-92
2023/09/03 04:01:15;;;;;;;38.33;9.02;;;;;;;11.26;100.00;101985.81;5038844;28;20060;-88
2023/09/03 04:03:41;;;;;;;49.28;9.75;;;;;;;11.26;100.00;101985.81;5058262;28;20040;-93
2023/09/03 04:06:07;;;;;;;40.40;9.18;;;;;;;11.22;100.00;101985.28;5055297;28;20051;-92
2023/09/03 04:08:38;;;;;;;49.80;9.30;;;;;;;11.16;100.00;101983.19;5055216;28;20033;-92
2023/09/03 04:11:14;;;;;;;45.88;8.65;;;;;;;11.09;100.00;101979.41;5039095;28;20055;-92
2023/09/03 04:13:40;;;;;;;57.25;9.38;;;;;;;11.00;100.00;101979.28;5022197;28;20037;-93
2023/09/03 04:16:14;;;;;;;68.47;10.18;;;;;;;10.93;100.00;101971.97;5038834;28;20052;-93
2023/09/03 04:18:39;;;;;;;93.78;10.00;;;;;;;10.87;100.00;101978.78;5023395;28;20033;-93
2023/09/03 04:21:05;;;;;;;55.63;9.50;;;;;;;10.86;100.00;101970.88;5053939;28;20044;-91
2023/09/03 04:23:34;;;;;;;63.03;10.18;;;;;;;10.88;100.00;101972.41;5053914;28;20029;-91
2023/09/03 04:26:03;;;;;;;44.28;8.77;;;;;;;10.77;100.00;101972.59;5054343;28;20033;-92
2023/09/03 04:28:29;;;;;;;59.28;9.23;;;;;;;10.75;100.00;101974.59;5037858;28;20479;-92
2023/09/03 04:30:59;;;;;;;51.38;8.73;;;;;;;10.73;100.00;101979.25;5056083;28;20037;-92
2023/09/03 04:33:28;;;;;;;23.73;7.00;;;;;;;10.73;100.00;101982.78;5054549;28;20033;-92
2023/09/03 04:35:59;;;;;;;22.80;6.80;;;;;;;10.85;100.00;101982.59;5038283;28;20041;-93
2023/09/03 04:38:27;;;;;;;23.35;6.55;;;;;;;11.04;100.00;101979.00;5021909;28;20071;-92
2023/09/03 04:40:56;;;;;;;24.95;7.95;;;;;;;11.18;100.00;101981.19;5038158;28;20086;-93
2023/09/03 04:43:22;;;;;;;21.58;7.22;;;;;;;11.30;100.00;101982.69;5071167;28;20040;-92
2023/09/03 04:45:51;;;;;;;22.98;7.38;;;;;;;11.40;100.00;101979.91;5038122;28;20048;-92
2023/09/03 04:48:18;;;;;;;21.55;7.30;;;;;;;11.50;100.00;101977.19;5037592;28;20025;-92
2023/09/03 04:50:44;;;;;;;20.00;7.03;;;;;;;11.55;100.00;101970.31;5037485;28;20087;-93
2023/09/03 04:53:12;;;;;;;21.77;7.68;;;;;;;11.65;100.00;101972.97;5037553;28;20033;-92
2023/09/03 04:55:38;;;;;;;19.95;6.80;;;;;;;11.76;100.00;101966.50;5036880;28;20040;-92
2023/09/03 04:58:07;;;;;;;18.48;6.95;;;;;;;11.85;100.00;101968.25;5054232;28;20559;-92
2023/09/03 05:00:33;;;;;;;17.80;6.88;;;;;;;11.90;100.00;101979.44;5055107;28;20033;-92
2023/09/03 05:03:01;;;;;;;17.52;6.55;;;;;;;11.99;100.00;101972.31;5021202;28;20071;-91
2023/09/03 05:05:29;;;;;;;13.93;5.95;;;;;;;12.07;100.00;101984.00;5037089;28;20059;-91
2023/09/03 05:07:54;;;;;;;16.58;6.18;;;;;;;12.09;100.00;101973.03;5037203;28;20040;-92
2023/09/03 05:10:20;;;;;;;13.70;5.70;;;;;;;12.13;100.00;101982.53;5053299;28;20037;-92
2023/09/03 05:12:45;;;;;;;13.70;5.90;;;;;;;12.15;100.00;101988.59;5052946;28;20677;-91
2023/09/03 05:15:12;;;;;;;14.00;5.70;;;;;;;12.19;100.00;101983.75;5036886;28;20383;-92
2023/09/03 05:17:46;;;;;;;15.95;5.50;;;;;;;12.24;100.00;101987.66;5053851;28;20056;-92
2023/09/03 05:20:13;;;;;;;;;;;;;;;12.29;100.00;101990.72;5051803;28;20037;-92
2023/09/03 05:22:39;;;;;;;15.23;5.78;;;;;;;12.32;100.00;101989.56;5054311;28;19909;-92
2023/09/03 05:25:05;;;;;;;13.23;4.97;;;;;;;12.30;100.00;101976.25;5054074;28;20055;-92
2023/09/03 05:27:37;;;;;;;21.65;6.68;;;;;;;12.39;100.00;101990.66;5037939;28;20115;-92
2023/09/03 05:30:03;;;;;;;14.82;5.43;;;;;;;12.43;100.00;101992.00;5053508;28;20122;-92
2023/09/03 05:32:28;;;;;;;17.25;6.18;;;;;;;12.40;100.00;101994.19;5038462;28;20033;-93
2023/09/03 05:34:54;;;;;;;14.57;5.63;;;;;;;12.31;100.00;101987.88;5058303;28;20037;-93
2023/09/03 05:37:20;;;;;;;14.38;5.78;;;;;;;12.24;100.00;101987.66;5040494;28;20044;-92
2023/09/03 05:39:45;;;;;;;17.00;5.82;;;;;;;12.23;100.00;101991.38;5057611;28;20452;-92
2023/09/03 05:42:11;;;;;;;15.68;5.43;;;;;;;12.22;100.00;101981.56;5074226;28;20021;-92
2023/09/03 05:44:37;;;;;;;13.35;5.28;;;;;;;12.27;100.00;101979.25;5057843;28;20040;-91
2023/09/03 05:47:03;;;;;;;13.38;5.40;;;;;;;12.32;100.00;101982.31;5056669;28;20029;-92
2023/09/03 05:49:30;;;;;;;13.68;5.47;;;;;;;12.36;100.00;101990.09;5058538;28;20029;-92
2023/09/03 05:51:59;;;;;;;12.93;5.18;;;;;;;12.40;100.00;102000.41;5057899;28;20076;-92
2023/09/03 05:54:25;;;;;;;12.75;5.20;;;;;;;12.45;100.00;102002.66;5056825;28;20025;-93
2023/09/03 05:56:50;;;;;;;12.63;4.70;;;;;;;12.49;100.00;102007.56;5057680;28;20509;-92
2023/09/03 05:59:16;;;;;;;14.27;4.82;;;;;;;12.53;100.00;102005.41;5057958;28;20391;-91
2023/09/03 06:01:44;;;;;;;16.73;5.15;;;;;;;12.60;100.00;102019.13;5056634;28;20081;-90
2023/09/03 06:04:14;;;;;;;12.63;4.95;;;;;;;12.60;100.00;102017.25;5057548;28;20033;-91
2023/09/03 06:06:39;;;;;;;14.35;5.32;;;;;;;12.68;100.00;102025.41;5059452;28;20040;-93
2023/09/03 06:09:06;;;;;;;11.32;4.90;;;;;;;12.76;100.00;102028.16;5058412;28;20029;-92
2023/09/03 06:11:35;;;;;;;12.63;5.38;;;;;;;12.83;100.00;102038.31;5040695;28;20056;-90
2023/09/03 06:14:03;;;;;;;13.95;5.30;;;;;;;12.89;100.00;102035.84;5039921;28;20036;-92
2023/09/03 06:16:32;;;;;;;16.15;5.20;;;;;;;12.94;100.00;102040.75;5056528;28;20048;-91
2023/09/03 06:18:58;;;;;;;13.75;5.35;;;;;;;12.96;100.00;102039.56;5057222;28;20175;-92
2023/09/03 06:21:26;;;;;;;14.55;6.05;;;;;;;13.02;100.00;102048.91;5040030;28;20040;-92
2023/09/03 06:23:53;;;;;;;13.60;5.60;;;;;;;13.04;100.00;102038.75;5056776;28;20040;-92
2023/09/03 06:26:19;;;;;;;14.10;5.82;;;;;;;13.11;100.00;102038.97;5040898;28;20033;-92
2023/09/03 06:28:47;;;;;;;14.25;5.57;;;;;;;13.14;100.00;102026.00;5076952;28;20497;-92
2023/09/03 06:31:14;;;;;;;15.63;6.22;;;;;;;13.18;100.00;102027.38;5051138;28;20029;-91
2023/09/03 06:33:40;;;;;;;18.00;6.72;;;;;;;13.26;100.00;102023.91;5063160;28;20059;-91
2023/09/03 06:36:07;;;;;;;15.52;5.95;;;;;;;13.33;100.00;102026.78;5063438;28;20031;-91
2023/09/03 06:38:33;;;;;;;11.95;5.78;;;;;;;13.41;100.00;102032.22;5057876;28;20100;-92
2023/09/03 06:41:04;;;;;;;12.60;6.05;;;;;;;13.47;100.00;102033.41;5040670;28;20029;-92
2023/09/03 06:43:29;;;;;;;15.02;6.55;;;;;;;13.48;100.00;102033.25;5055982;28;20039;-92
2023/09/03 06:45:55;;;;;;;16.45;6.53;;;;;;;13.49;100.00;102032.25;5056385;28;20025;-93
2023/09/03 06:48:21;;;;;;;11.00;5.72;;;;;;;13.54;100.00;102037.16;5056494;28;20068;-90
2023/09/03 06:50:48;;;;;;;16.17;6.05;;;;;;;13.60;100.00;102034.66;5057596;28;20029;-92
2023/09/03 06:53:13;;;;;;;14.70;6.25;;;;;;;13.64;100.00;102041.41;5056357;28;20029;-92
2023/09/03 06:55:44;;;;;;;16.02;6.45;;;;;;;13.69;100.00;102053.59;5039832;28;20029;-93
2023/09/03 06:58:10;;;;;;;15.48;6.97;;;;;;;13.74;100.00;102048.53;5056928;28;20037;-93
2023/09/03 07:00:36;;;;;;;19.30;7.78;;;;;;;13.72;100.00;102054.09;5040558;28;20510;-93
2023/09/03 07:03:04;;;;;;;18.40;7.30;;;;;;;13.75;100.00;102058.34;5058072;28;20041;-93
2023/09/03 07:05:30;;;;;;;22.40;7.22;;;;;;;13.81;100.00;102055.84;5057799;28;20029;-92
2023/09/03 07:07:56;;;;;;;21.35;8.30;;;;;;;13.88;100.00;102068.69;5056334;28;20096;-92
2023/09/03 07:10:21;;;;;;;27.42;8.90;;;;;;;13.94;100.00;102063.44;5056213;28;20021;-92
2023/09/03 07:12:47;;;;;;;18.98;8.10;;;;;;;13.99;100.00;102071.91;5043210;28;20124;-92
2023/09/03 07:15:13;;;;;;;21.67;7.57;;;;;;;14.05;100.00;102070.38;5058905;28;20112;-93
2023/09/03 07:17:41;;;;;;;28.38;8.73;;;;;;;14.11;100.00;102067.03;5072603;28;20029;-93
2023/09/03 07:20:12;;;;;;;29.17;8.32;;;;;;;14.17;100.00;102068.22;5040723;28;20068;-92
2023/09/03 07:22:40;;;;;;;28.80;8.63;;;;;;;14.20;100.00;102079.53;5056419;28;20036;-93
2023/09/03 07:25:09;;;;;;;20.27;8.43;;;;;;;14.23;100.00;102067.53;5056384;28;20064;-92
2023/09/03 07:27:40;;;;;;;24.25;8.27;;;;;;;14.32;100.00;102073.81;5055399;28;20029;-93
2023/09/03 07:30:08;;;;;;;20.10;7.70;;;;;;;14.39;100.00;102082.94;5055512;28;20494;-95
2023/09/03 07:32:37;;;;;;;20.80;8.27;;;;;;;14.41;100.00;102081.75;5023114;28;20025;-92
2023/09/03 07:35:10;;;;;;;19.30;8.38;;;;;;;14.43;100.00;102079.72;5088843;28;20036;-92
2023/09/03 07:37:36;;;;;;;20.08;7.82;;;;;;;14.47;100.00;102083.81;5053270;28;20028;-92
2023/09/03 07:40:04;;;;;;;20.98;8.27;;;;;;;14.51;100.00;102082.44;5038551;28;20076;-92
2023/09/03 07:42:30;;;;;;;16.98;8.20;;;;;;;14.51;100.00;102089.72;5055172;28;20043;-91
2023/09/03 07:44:58;;;;;;;15.95;8.07;;;;;;;14.58;100.00;102100.72;5054992;28;20115;-91
2023/09/03 07:47:23;;;;;;;14.25;8.18;;;;;;;14.67;100.00;102105.13;5022429;28;20037;-92
2023/09/03 07:49:49;;;;;;;13.85;7.35;;;;;;;14.74;100.00;102106.16;5038803;28;20029;-92
2023/09/03 07:52:16;;;;;;;17.55;8.60;;;;;;;14.79;100.00;102111.03;5054328;28;20036;-91
2023/09/03 07:54:42;;;;;;;18.70;9.95;;;;;;;14.78;100.00;102109.34;5054793;28;20060;-92
2023/09/03 07:57:07;;;;;;;13.57;7.10;;;;;;;14.84;100.00;102114.91;5055710;28;20139;-92
2023/09/03 07:59:34;;;;;;;11.63;6.38;;;;;;;15.01;100.00;102115.75;5055335;28;20036;-92
2023/09/03 08:02:03;;;;;;;11.40;6.28;;;;;;;15.20;100.00;102116.41;5071135;28;20048;-92
2023/09/03 08:04:32;;;;;;;9.63;5.65;;;;;;;15.51;100.00;102121.91;5055051;28;20075;-92
2023/09/03 08:07:00;;;;;;;10.73;6.18;;;;;;;15.65;100.00;102123.03;5054680;28;20071;-92
2023/09/03 08:09:29;;;;;;;11.20;6.13;;;;;;;15.66;100.00;102120.13;5071095;28;20021;-93
2023/09/03 08:11:54;;;;;;;10.55;5.78;;;;;;;15.72;100.00;102119.47;5053981;28;20039;-92
2023/09/03 08:14:21;;;;;;;10.82;6.05;;;;;;;15.74;100.00;102128.25;5038022;28;20028;-93
2023/09/03 08:16:46;;;;;;;9.65;6.05;;;;;;;15.66;100.00;102132.84;5054807;28;20065;-94
2023/09/03 08:19:19;;;;;;;12.75;6.43;;;;;;;15.67;100.00;102137.25;5055153;28;20037;-92
2023/09/03 08:21:45;;;;;;;9.98;5.85;;;;;;;15.70;100.00;102139.66;5061660;28;20037;-92
2023/09/03 08:24:11;;;;;;;10.30;5.60;;;;;;;15.68;100.00;102139.78;5061456;28;20037;-92
2023/09/03 08:26:37;;;;;;;8.00;5.07;;;;;;;15.87;100.00;102132.28;5053349;28;20025;-92
2023/09/03 08:29:03;;;;;;;8.70;5.25;;;;;;;16.18;100.00;102130.41;5070376;28;20025;-93
2023/09/03 08:31:31;;;;;;;8.18;5.38;;;;;;;16.44;100.00;102126.50;5054302;28;20156;-92
2023/09/03 08:33:57;;;;;;;8.10;4.78;;;;;;;16.51;100.00;102127.44;5037103;28;20068;-93
2023/09/03 08:36:23;;;;;;;7.15;4.88;;;;;;;16.78;100.00;102136.09;5053517;28;20061;-91
2023/09/03 08:38:51;;;;;;;7.13;4.60;;;;;;;17.24;100.00;102136.00;5054701;28;20490;-92
2023/09/03 08:41:20;;;;;;;6.70;3.90;;;;;;;17.52;100.00;102134.31;5053390;28;20029;-93
2023/09/03 08:43:54;;;;;;;6.78;4.20;;;;;;;17.85;100.00;102142.09;5054280;28;20036;-90
2023/09/03 08:46:24;;;;;;;6.80;3.90;;;;;;;17.44;100.00;102152.56;5053018;28;20108;-92
2023/09/03 08:48:49;;;;;;;6.68;4.55;;;;;;;17.23;100.00;102146.03;5037140;28;20480;-94
2023/09/03 08:51:15;;;;;;;5.30;4.22;;;;;;;16.97;100.00;102154.59;5053286;28;20032;-92
2023/09/03 08:53:43;;;;;;;7.57;5.47;;;;;;;16.76;100.00;102155.25;5055252;28;20037;-91
2023/09/03 08:56:11;;;;;;;8.63;5.15;;;;;;;16.90;100.00;102156.34;5021166;28;20036;-94
2023/09/03 08:58:36;;;;;;;5.05;4.07;;;;;;;17.07;100.00;102157.91;5037055;28;20037;-91
2023/09/03 09:01:06;;;;;;;5.97;4.70;;;;;;;17.08;100.00;102166.91;5052517;28;20070;-92
2023/09/03 09:03:38;;;;;;;7.82;4.90;;;;;;;17.64;100.00;102163.75;5021118;28;20049;-94
2023/09/03 09:06:05;;;;;;;6.22;4.80;;;;;;;18.96;100.00;102166.31;5037175;28;20029;-91
2023/09/03 09:08:31;;;;;;;7.57;4.38;;;;;;;19.29;100.00;102163.81;5056329;28;20083;-92
2023/09/03 09:11:02;;;;;;;5.90;4.20;;;;;;;18.67;100.00;102166.22;5057287;28;20110;-92
2023/09/03 09:13:28;;;;;;;5.22;4.32;;;;;;;18.27;100.00;102164.97;5040310;28;20549;-93
2023/09/03 09:15:53;;;;;;;6.15;4.53;;;;;;;18.05;100.00;102166.84;5040888;28;20041;-94
2023/09/03 09:18:19;;;;;;;5.55;4.50;;;;;;;18.15;100.00;102161.94;5040586;28;20407;-92
2023/09/03 09:20:46;;;;;;;6.95;4.60;;;;;;;18.08;100.00;102163.72;5055667;28;20033;-90
2023/09/03 09:23:12;;;;;;;6.60;5.38;;;;;;;18.10;100.00;102166.22;5039665;28;20033;-91
2023/09/03 09:25:37;;;;;;;6.28;4.57;;;;;;;18.20;100.00;102162.16;5055937;28;20037;-90
2023/09/03 09:28:13;;;;;;;8.48;5.25;;;;;;;18.32;100.00;102151.63;5056021;28;20120;-93
2023/09/03 09:30:58;;;;;;;6.80;5.03;;;;;;;18.54;100.00;102152.47;5055723;28;20035;-90
2023/09/03 09:33:25;;;;;;;7.03;5.63;;;;;;;18.59;100.00;102141.84;5039239;28;20040;-91
2023/09/03 09:35:51;;;;;;;7.07;4.93;;;;;;;18.71;100.00;102144.03;5089898;28;20029;-92
2023/09/03 09:38:35;;;;;;;5.07;4.18;;;;;;;18.98;100.00;102150.59;5057676;28;20107;-90
2023/09/03 09:41:25;;;;;;;6.00;4.80;;;;;;;19.26;100.00;102148.69;5049426;28;20111;-91
2023/09/03 09:43:51;;;;;;;5.13;4.05;;;;;;;19.68;100.00;102149.59;5045914;28;20041;-93
2023/09/03 09:46:30;;;;;;;5.40;3.53;;;;;;;20.06;100.00;102151.00;5061863;28;20029;-91
2023/09/03 09:49:10;;;;;;;4.80;3.50;;;;;;;20.23;100.00;102146.88;5041977;28;20121;-92
2023/09/03 09:51:39;;;;;;;6.00;3.60;;;;;;;20.02;100.00;102147.00;5023440;28;20049;-95
2023/09/03 09:54:08;;;;;;;5.10;3.83;;;;;;;19.73;100.00;102151.72;5056076;28;20103;-91
2023/09/03 09:56:34;;;;;;;4.97;4.00;;;;;;;19.05;100.00;102148.75;5040216;28;20071;-94
2023/09/03 09:59:00;;;;;;;4.93;3.80;;;;;;;19.06;100.00;102150.44;5057015;28;20040;-93
2023/09/03 10:01:27;;;;;;;5.00;3.50;;;;;;;18.93;100.00;102147.63;5057556;28;20550;-92
2023/09/03 10:03:54;;;;;;;4.40;3.10;;;;;;;18.89;100.00;102145.28;5056602;28;20037;-92
2023/09/03 10:06:22;;;;;;;4.78;3.08;;;;;;;19.73;100.00;102140.81;5057735;28;20028;-93
2023/09/03 10:08:51;;;;;;;3.33;2.78;;;;;;;21.81;100.00;102151.66;5039946;28;20467;-93
2023/09/03 10:11:17;;;;;;;4.95;3.10;;;;;;;22.44;100.00;102146.28;5022970;28;20108;-91
2023/09/03 10:13:44;;;;;;;3.22;2.85;;;;;;;22.97;100.00;102140.41;5056454;28;20033;-93
2023/09/03 10:16:10;;;;;;;3.92;2.63;;;;;;;22.56;100.00;102138.19;5039386;28;20037;-94
2023/09/03 10:18:40;;;;;;;2.83;2.20;;;;;;;22.36;100.00;102144.66;5038489;28;20037;-90
2023/09/03 10:21:09;;;;;;;4.03;2.08;;;;;;;21.99;100.00;102139.97;5055647;28;20044;-91
2023/09/03 10:23:43;;;;;;;3.65;2.78;;;;;;;21.97;100.00;102137.47;5038741;28;20084;-89
2023/09/03 10:26:12;;;;;;;3.53;2.45;;;;;;;21.64;100.00;102124.75;5023231;28;20123;-90
2023/09/03 10:28:40;;;;;;;4.15;2.17;;;;;;;21.41;100.00;102147.16;5039124;28;20108;-88
2023/09/03 10:31:07;;;;;;;3.53;2.83;;;;;;;21.17;100.00;102139.56;5038516;28;20094;-89
2023/09/03 10:33:38;;;;;;;5.03;2.33;;;;;;;21.13;100.00;102133.69;5039377;28;20041;-89
2023/09/03 10:36:17;;;;;;;4.35;2.10;;;;;;;21.65;100.00;102136.56;5055975;28;20032;-89
2023/09/03 10:38:44;;;;;;;3.15;1.88;;;;;;;21.69;100.00;102129.59;5056579;28;20115;-89
2023/09/03 10:41:22;;;;;;;3.97;1.90;;;;;;;21.92;100.00;102135.38;5060202;28;20053;-89
2023/09/03 10:43:53;;;;;;;3.38;1.90;;;;;;;22.36;100.00;102135.56;5053051;28;20055;-89
2023/09/03 10:46:19;;;;;;;2.15;1.83;;;;;;;22.75;100.00;102141.81;5068901;28;20025;-87
2023/09/03 10:48:55;;;;;;;6.47;2.25;;;;;;;23.07;100.00;102136.31;5062434;28;20048;-88
2023/09/03 10:51:32;;;;;;;2.53;1.80;;;;;;;23.45;100.00;102134.22;5056422;28;20037;-89
2023/09/03 10:54:24;;;;;;;2.92;1.80;;;;;;;23.36;100.00;102142.97;5056182;28;20029;-89
2023/09/03 10:57:09;;;;;;;4.07;1.60;;;;;;;23.14;97.94;102131.59;5024759;28;20037;-89
2023/09/03 11:00:05;;;;;;;2.60;1.38;;;;;;;22.58;95.01;102131.41;5055863;28;20060;-88
2023/09/03 11:02:34;;;;;;;2.40;1.50;;;;;;;22.64;93.25;102143.41;5055846;28;20423;-88
2023/09/03 11:05:20;;;;;;;5.10;1.60;;;;;;;23.19;89.02;102138.09;5054487;28;20373;-89
2023/09/03 11:07:46;;;;;;;2.53;1.50;;;;;;;23.45;84.40;102134.22;5055300;28;20025;-87
2023/09/03 11:10:21;;;;;;;1.77;1.50;;;;;;;23.51;84.59;102124.22;5054747;28;20108;-88
2023/09/03 11:12:47;;;;;;;2.28;1.48;;;;;;;23.92;80.19;102120.78;5054979;28;20052;-88
2023/09/03 11:15:17;;;;;;;1.88;1.50;;;;;;;24.11;78.21;102121.59;5070776;28;20037;-88
2023/09/03 11:17:56;;;;;;;1.63;1.17;;;;;;;23.63;75.34;102122.41;5053949;28;20044;-88